createdAt,value
2022-12-31T00:00:49.321Z,100062.41
2022-12-31T00:03:19.281Z,100052.56
2022-12-31T00:05:46.323Z,100037.31
2022-12-31T00:08:13.597Z,100040.53
2022-12-31T00:10:41.756Z,100040.53
2022-12-31T00:13:11.035Z,100045.53
2022-12-31T00:15:39.864Z,100061.53
2022-12-31T00:18:10.738Z,100058.22
2022-12-31T00:20:42.029Z,100059.25
2022-12-31T00:23:10.729Z,100080.69
2022-12-31T00:25:37.919Z,100072.28
2022-12-31T00:28:05.671Z,100060.88
2022-12-31T00:30:41.732Z,100070.47
2022-12-31T00:33:08.785Z,100078.72
2022-12-31T00:35:36.668Z,100116.94
2022-12-31T00:38:06.476Z,100101.41
2022-12-31T00:40:36.151Z,100100.31
2022-12-31T00:43:03.076Z,100093.25
2022-12-31T00:45:30.043Z,100092.69
2022-12-31T00:47:57.010Z,100081.22
2022-12-31T00:50:24.039Z,100068.41
2022-12-31T00:52:51.617Z,100067.91
2022-12-31T00:55:18.577Z,100070.53
2022-12-31T00:57:47.787Z,100073.53
2022-12-31T01:00:16.034Z,100089.50
2022-12-31T01:02:43.079Z,100092.97
2022-12-31T01:05:10.335Z,100107.53
2022-12-31T01:07:38.397Z,100113.53
2022-12-31T01:10:07.994Z,100107.19
2022-12-31T01:12:34.973Z,100105.56
2022-12-31T01:15:02.063Z,100105.38
2022-12-31T01:17:29.155Z,100107.09
2022-12-31T01:19:56.099Z,100097.47
2022-12-31T01:22:23.056Z,100104.06
2022-12-31T01:24:49.988Z,100113.59
2022-12-31T01:27:16.952Z,100113.69
2022-12-31T01:29:43.927Z,100138.44
2022-12-31T01:32:10.854Z,100129.59
2022-12-31T01:34:37.795Z,100122.69
2022-12-31T01:37:04.723Z,100131.75
2022-12-31T01:39:31.743Z,100145.31
2022-12-31T01:42:01.313Z,100138.28
2022-12-31T01:44:28.232Z,100144.25
2022-12-31T01:47:00.151Z,100132.91
2022-12-31T01:49:36.668Z,100150.72
2022-12-31T01:52:17.227Z,100131.81
2022-12-31T01:55:30.314Z,100142.19
2022-12-31T01:58:08.933Z,100130.63
2022-12-31T02:00:36.209Z,100131.31
2022-12-31T02:03:05.885Z,100155.00
2022-12-31T02:05:39.580Z,100133.09
2022-12-31T02:08:07.713Z,100127.69
2022-12-31T02:10:56.671Z,100133.66
2022-12-31T02:13:24.388Z,100136.72
2022-12-31T02:16:44.957Z,100130.13
2022-12-31T02:19:33.787Z,100120.03
2022-12-31T02:22:14.895Z,100109.69
2022-12-31T02:25:01.598Z,100109.50
2022-12-31T02:27:38.236Z,100102.53
2022-12-31T02:30:17.857Z,100104.78
2022-12-31T02:33:10.018Z,100093.19
2022-12-31T02:35:57.031Z,100096.78
2022-12-31T02:38:46.802Z,100090.47
2022-12-31T02:41:35.734Z,100082.56
2022-12-31T02:44:24.141Z,100087.44
2022-12-31T02:47:20.978Z,100080.84
2022-12-31T02:50:23.793Z,100089.31
2022-12-31T02:53:24.886Z,100073.81
2022-12-31T02:56:32.341Z,100041.19
2022-12-31T02:59:27.176Z,100019.34
2022-12-31T03:02:16.637Z,100058.88
2022-12-31T03:04:50.907Z,100082.25
2022-12-31T03:07:25.828Z,100059.78
2022-12-31T03:09:53.429Z,100062.69
2022-12-31T03:12:42.273Z,100057.94
2022-12-31T03:15:19.941Z,100045.88
2022-12-31T03:17:51.793Z,100053.09
2022-12-31T03:20:38.686Z,100051.91
2022-12-31T03:23:11.936Z,100048.44
2022-12-31T03:25:39.084Z,100044.47
2022-12-31T03:28:11.123Z,100064.00
2022-12-31T03:30:42.571Z,100064.13
2022-12-31T03:33:09.580Z,100064.41
2022-12-31T03:35:43.865Z,100068.59
2022-12-31T03:38:11.264Z,100077.72
2022-12-31T03:40:43.103Z,100080.09
2022-12-31T03:43:10.154Z,100092.03
2022-12-31T03:45:38.015Z,100085.41
2022-12-31T03:48:10.641Z,100078.22
2022-12-31T03:50:39.740Z,100084.97
2022-12-31T03:53:06.734Z,100074.22
2022-12-31T03:55:33.714Z,100103.88
2022-12-31T03:58:00.800Z,100111.78
2022-12-31T04:00:27.944Z,100090.50
2022-12-31T04:02:55.309Z,100104.91
2022-12-31T04:05:23.456Z,100104.31
2022-12-31T04:07:52.228Z,100116.38
2022-12-31T04:10:20.481Z,100112.44
2022-12-31T04:12:47.839Z,100112.63
2022-12-31T04:15:21.054Z,100106.63
2022-12-31T04:17:49.005Z,100116.25
2022-12-31T04:20:16.829Z,100110.94
2022-12-31T04:22:44.383Z,100117.91
2022-12-31T04:25:12.948Z,100106.06
2022-12-31T04:27:41.521Z,100115.69
2022-12-31T04:30:12.444Z,100128.31
2022-12-31T04:32:39.965Z,100125.13
2022-12-31T04:35:08.051Z,100103.56
2022-12-31T04:37:35.015Z,100117.06
2022-12-31T04:40:06.214Z,100103.06
2022-12-31T04:42:35.222Z,100133.63
2022-12-31T04:45:02.291Z,100134.69
2022-12-31T04:47:29.370Z,100128.66
2022-12-31T04:49:56.470Z,100148.69
2022-12-31T04:52:23.580Z,100121.66
2022-12-31T04:54:50.599Z,100144.13
2022-12-31T04:57:21.121Z,100144.72
2022-12-31T04:59:48.188Z,100139.03
2022-12-31T05:02:15.303Z,100129.91
2022-12-31T05:04:42.428Z,100143.25
2022-12-31T05:07:09.400Z,100144.13
2022-12-31T05:09:36.562Z,100146.16
2022-12-31T05:12:03.779Z,100137.91
2022-12-31T05:14:30.806Z,100156.44
2022-12-31T05:16:58.733Z,100147.34
2022-12-31T05:19:25.776Z,100159.97
2022-12-31T05:22:11.512Z,100159.34
2022-12-31T05:24:39.268Z,100156.94
2022-12-31T05:27:06.241Z,100143.19
2022-12-31T05:29:33.352Z,100151.91
2022-12-31T05:32:00.286Z,100166.19
2022-12-31T05:34:27.204Z,100163.16
2022-12-31T05:36:57.796Z,100170.28
2022-12-31T05:39:24.729Z,100173.94
2022-12-31T05:41:51.703Z,100162.91
2022-12-31T05:44:18.701Z,100168.44
2022-12-31T05:46:47.000Z,100166.50
2022-12-31T05:49:14.047Z,100177.56
2022-12-31T05:51:41.009Z,100173.00
2022-12-31T05:54:07.953Z,100176.47
2022-12-31T05:56:34.983Z,100182.41
2022-12-31T05:59:01.927Z,100181.78
2022-12-31T06:01:28.913Z,100183.88
2022-12-31T06:03:57.072Z,100179.38
2022-12-31T06:06:24.000Z,100194.03
2022-12-31T06:08:52.009Z,100190.09
2022-12-31T06:11:19.110Z,100200.59
2022-12-31T06:13:46.494Z,100209.44
2022-12-31T06:16:13.772Z,100203.75
2022-12-31T06:18:41.160Z,100213.91
2022-12-31T06:21:08.144Z,100207.78
2022-12-31T06:23:35.089Z,100225.94
2022-12-31T06:26:05.770Z,100222.03
2022-12-31T06:28:33.097Z,100222.13
2022-12-31T06:31:01.970Z,100212.38
2022-12-31T06:33:29.185Z,100223.41
2022-12-31T06:36:01.891Z,100221.50
2022-12-31T06:38:31.525Z,100231.06
2022-12-31T06:40:58.468Z,100219.84
2022-12-31T06:43:25.503Z,100222.59
2022-12-31T06:45:52.451Z,100225.72
2022-12-31T06:48:19.419Z,100248.53
2022-12-31T06:50:46.390Z,100200.72
2022-12-31T06:53:13.320Z,100235.44
2022-12-31T06:55:40.723Z,100250.88
2022-12-31T06:58:14.026Z,100248.28
2022-12-31T07:01:00.144Z,100256.34
2022-12-31T07:04:13.652Z,100260.22
2022-12-31T07:06:54.250Z,100245.75
2022-12-31T07:09:52.932Z,100259.38
2022-12-31T07:13:12.432Z,100257.38
2022-12-31T07:16:12.774Z,100298.22
2022-12-31T07:19:12.191Z,100277.94
2022-12-31T07:21:41.738Z,100266.69
2022-12-31T07:24:10.840Z,100282.28
2022-12-31T07:27:11.729Z,100265.66
2022-12-31T07:30:15.220Z,100278.00
2022-12-31T07:33:36.452Z,100282.75
2022-12-31T07:36:50.783Z,100279.28
2022-12-31T07:39:30.908Z,100295.78
2022-12-31T07:42:22.551Z,100295.91
2022-12-31T07:45:03.745Z,100289.56
2022-12-31T07:47:31.817Z,100284.00
2022-12-31T07:49:59.228Z,100283.03
2022-12-31T07:52:27.165Z,100302.91
2022-12-31T07:54:54.139Z,100297.91
2022-12-31T07:57:26.566Z,100314.81
2022-12-31T08:00:07.280Z,100310.66
2022-12-31T08:03:04.151Z,100319.22
2022-12-31T08:06:05.494Z,100322.31
2022-12-31T08:09:32.110Z,100328.78
2022-12-31T08:12:01.328Z,100349.25
2022-12-31T08:14:30.234Z,100344.75
2022-12-31T08:16:58.124Z,100356.03
2022-12-31T08:19:31.809Z,100361.25
2022-12-31T08:22:53.452Z,100361.56
2022-12-31T08:25:37.370Z,100355.78
2022-12-31T08:28:38.030Z,100357.06
2022-12-31T08:31:15.765Z,100368.13
2022-12-31T08:33:42.755Z,100376.75
2022-12-31T08:36:42.317Z,100388.88
2022-12-31T08:39:39.620Z,100378.50
2022-12-31T08:42:43.815Z,100386.63
2022-12-31T08:45:43.546Z,100399.81
2022-12-31T08:48:29.797Z,100395.81
2022-12-31T08:50:57.201Z,100403.00
2022-12-31T08:53:24.663Z,100397.97
2022-12-31T08:56:05.678Z,100388.75
2022-12-31T08:58:48.396Z,100415.56
2022-12-31T09:01:19.070Z,100397.50
2022-12-31T09:04:11.303Z,100394.00
2022-12-31T09:06:56.609Z,100396.13
2022-12-31T09:10:04.717Z,100410.66
2022-12-31T09:13:22.416Z,100420.94
2022-12-31T09:16:01.472Z,100414.00
2022-12-31T09:18:33.310Z,100423.91
2022-12-31T09:21:00.876Z,100430.13
2022-12-31T09:23:28.189Z,100427.00
2022-12-31T09:26:19.944Z,100425.03
2022-12-31T09:29:04.768Z,100424.78
2022-12-31T09:31:57.006Z,100418.47
2022-12-31T09:34:33.757Z,100415.44
2022-12-31T09:37:10.695Z,100411.63
2022-12-31T09:39:47.997Z,100404.66
2022-12-31T09:42:47.416Z,100418.44
2022-12-31T09:45:57.671Z,100435.75
2022-12-31T09:48:51.492Z,100443.69
2022-12-31T09:51:55.085Z,100434.56
2022-12-31T09:54:49.170Z,100449.03
2022-12-31T09:58:04.413Z,100459.38
2022-12-31T10:00:52.769Z,100470.94
2022-12-31T10:03:34.731Z,100484.72
2022-12-31T10:06:20.278Z,100495.19
2022-12-31T10:09:28.258Z,100478.16
2022-12-31T10:12:19.171Z,100487.28
2022-12-31T10:15:09.377Z,100473.97
2022-12-31T10:18:16.465Z,100463.66
2022-12-31T10:21:16.932Z,100477.94
2022-12-31T10:23:49.772Z,100470.63
2022-12-31T10:26:35.665Z,100478.81
2022-12-31T10:29:43.122Z,100487.03
2022-12-31T10:32:31.029Z,100470.31
2022-12-31T10:35:28.989Z,100498.75
2022-12-31T10:38:26.353Z,100488.66
2022-12-31T10:41:45.895Z,100494.88
2022-12-31T10:44:56.823Z,100495.06
2022-12-31T10:48:13.430Z,100501.63
2022-12-31T10:51:06.332Z,100507.13
2022-12-31T10:54:10.730Z,100520.06
2022-12-31T10:56:52.730Z,100504.69
2022-12-31T10:59:56.668Z,100518.59
2022-12-31T11:02:29.532Z,100527.75
2022-12-31T11:05:51.941Z,100518.75
2022-12-31T11:09:03.614Z,100510.94
2022-12-31T11:12:16.032Z,100523.63
2022-12-31T11:15:18.766Z,100533.34
2022-12-31T11:18:13.256Z,100520.69
2022-12-31T11:21:00.808Z,100516.31
2022-12-31T11:23:51.464Z,100521.91
2022-12-31T11:26:46.072Z,100522.31
2022-12-31T11:29:48.737Z,100524.25
2022-12-31T11:32:58.587Z,100516.47
2022-12-31T11:36:05.134Z,100519.69
2022-12-31T11:38:57.999Z,100507.47
2022-12-31T11:41:38.374Z,100521.94
2022-12-31T11:44:23.692Z,100502.72
2022-12-31T11:47:05.525Z,100504.25
2022-12-31T11:49:45.325Z,100503.25
2022-12-31T11:52:40.219Z,100516.44
2022-12-31T11:55:50.776Z,100518.22
2022-12-31T11:58:28.687Z,100524.75
2022-12-31T12:01:22.798Z,100501.38
2022-12-31T12:03:50.693Z,100502.94
2022-12-31T12:06:25.596Z,100504.31
2022-12-31T12:08:54.745Z,100486.75
2022-12-31T12:11:28.920Z,100478.56
2022-12-31T12:13:56.753Z,100485.84
2022-12-31T12:16:25.773Z,100487.63
2022-12-31T12:19:06.111Z,100488.56
2022-12-31T12:21:34.294Z,100480.84
2022-12-31T12:24:27.185Z,100474.19
2022-12-31T12:26:54.800Z,100490.28
2022-12-31T12:29:34.146Z,100483.16
2022-12-31T12:32:26.408Z,100492.91
2022-12-31T12:34:54.119Z,100489.41
2022-12-31T12:37:34.474Z,100494.25
2022-12-31T12:40:34.621Z,100492.41
2022-12-31T12:43:03.314Z,100474.94
2022-12-31T12:45:47.658Z,100486.25
2022-12-31T12:48:42.414Z,100475.03
2022-12-31T12:51:51.828Z,100461.84
2022-12-31T12:54:34.335Z,100463.13
2022-12-31T12:57:13.020Z,100461.00
2022-12-31T13:00:16.738Z,100478.59
2022-12-31T13:03:32.327Z,100465.63
2022-12-31T13:06:26.698Z,100457.56
2022-12-31T13:09:24.697Z,100459.72
2022-12-31T13:12:08.121Z,100449.97
2022-12-31T13:14:35.033Z,100436.94
2022-12-31T13:17:45.218Z,100459.56
2022-12-31T13:20:38.263Z,100464.69
2022-12-31T13:23:05.242Z,100463.78
2022-12-31T13:26:13.206Z,100466.69
2022-12-31T13:28:42.916Z,100474.72
2022-12-31T13:31:15.386Z,100458.22
2022-12-31T13:33:55.552Z,100456.34
2022-12-31T13:36:25.806Z,100469.78
2022-12-31T13:38:54.860Z,100457.25
2022-12-31T13:41:34.248Z,100455.31
2022-12-31T13:44:33.209Z,100453.91
2022-12-31T13:47:14.450Z,100462.91
2022-12-31T13:49:53.263Z,100462.63
2022-12-31T13:52:44.287Z,100461.22
2022-12-31T13:55:15.982Z,100455.59
2022-12-31T13:58:12.571Z,100462.72
2022-12-31T14:00:58.857Z,100469.22
2022-12-31T14:04:03.930Z,100471.50
2022-12-31T14:06:41.633Z,100452.59
2022-12-31T14:09:20.906Z,100481.41
2022-12-31T14:12:34.493Z,100469.00
2022-12-31T14:15:31.415Z,100471.56
2022-12-31T14:18:23.124Z,100458.97
2022-12-31T14:20:59.161Z,100459.44
2022-12-31T14:24:22.593Z,100471.94
2022-12-31T14:26:57.942Z,100465.44
2022-12-31T14:29:48.937Z,100473.28
2022-12-31T14:32:38.881Z,100461.50
2022-12-31T14:35:39.909Z,100462.00
2022-12-31T14:38:33.596Z,100456.41
2022-12-31T14:41:28.983Z,100462.22
2022-12-31T14:44:20.112Z,100457.34
2022-12-31T14:47:08.447Z,100458.16
2022-12-31T14:49:53.455Z,100439.91
2022-12-31T14:52:23.162Z,100448.78
2022-12-31T14:55:07.143Z,100462.34
2022-12-31T14:58:01.575Z,100451.00
2022-12-31T15:00:32.928Z,100452.94
2022-12-31T15:03:04.636Z,100470.88
2022-12-31T15:05:35.954Z,100469.56
2022-12-31T15:09:08.296Z,100456.75
2022-12-31T15:12:45.493Z,100453.97
2022-12-31T15:15:21.344Z,100467.22
2022-12-31T15:18:26.459Z,100459.56
2022-12-31T15:21:22.246Z,100460.41
2022-12-31T15:23:49.914Z,100458.72
2022-12-31T15:26:31.855Z,100459.78
2022-12-31T15:29:06.001Z,100458.53
2022-12-31T15:31:35.659Z,100445.41
2022-12-31T15:34:20.949Z,100439.19
2022-12-31T15:36:55.827Z,100436.44
2022-12-31T15:39:30.672Z,100436.31
2022-12-31T15:44:56.625Z,100421.34
2022-12-31T15:47:40.118Z,100435.72
2022-12-31T15:50:23.243Z,100440.81
2022-12-31T15:52:54.307Z,100415.03
2022-12-31T15:55:34.153Z,100412.94
2022-12-31T15:58:11.048Z,100419.25
2022-12-31T16:01:09.923Z,100418.22
2022-12-31T16:03:37.181Z,100413.84
2022-12-31T16:06:12.306Z,100418.16
2022-12-31T16:08:44.439Z,100407.00
2022-12-31T16:11:11.860Z,100426.66
2022-12-31T16:13:47.688Z,100418.03
2022-12-31T16:16:31.456Z,100408.34
2022-12-31T16:18:59.506Z,100415.75
2022-12-31T16:21:35.235Z,100408.03
2022-12-31T16:24:29.575Z,100400.91
2022-12-31T16:27:12.253Z,100404.09
2022-12-31T16:29:50.617Z,100408.16
2022-12-31T16:32:21.879Z,100411.19
2022-12-31T16:34:48.839Z,100397.47
2022-12-31T16:37:19.792Z,100388.28
2022-12-31T16:39:58.941Z,100404.31
2022-12-31T16:42:29.486Z,100365.81
2022-12-31T16:44:58.030Z,100378.66
2022-12-31T16:47:38.257Z,100380.44
2022-12-31T16:50:25.288Z,100391.97
2022-12-31T16:53:04.278Z,100387.47
2022-12-31T16:55:32.738Z,100379.53
2022-12-31T16:58:36.013Z,100364.38
2022-12-31T17:01:18.734Z,100357.63
2022-12-31T17:03:52.889Z,100354.50
2022-12-31T17:06:21.606Z,100383.31
2022-12-31T17:09:04.552Z,100398.78
2022-12-31T17:11:34.963Z,100380.38
2022-12-31T17:14:08.266Z,100379.06
2022-12-31T17:17:03.350Z,100400.56
2022-12-31T17:19:50.700Z,100390.25
2022-12-31T17:22:37.282Z,100394.38
2022-12-31T17:25:07.430Z,100407.94
2022-12-31T17:27:36.064Z,100399.72
2022-12-31T17:30:27.639Z,100389.34
2022-12-31T17:33:13.342Z,100396.03
2022-12-31T17:35:43.933Z,100384.13
2022-12-31T17:38:22.958Z,100389.31
2022-12-31T17:41:14.781Z,100392.84
2022-12-31T17:43:42.637Z,100385.16
2022-12-31T17:46:13.420Z,100391.50
2022-12-31T17:48:41.087Z,100380.81
2022-12-31T17:51:08.118Z,100385.22
2022-12-31T17:53:35.400Z,100386.63
2022-12-31T17:56:06.309Z,100388.28
2022-12-31T17:58:42.686Z,100383.69
2022-12-31T18:01:12.157Z,100398.41
2022-12-31T18:03:39.169Z,100421.16
2022-12-31T18:06:09.172Z,100410.63
2022-12-31T18:08:40.113Z,100404.88
2022-12-31T18:11:11.048Z,100414.53
2022-12-31T18:13:38.129Z,100423.16
2022-12-31T18:16:05.629Z,100420.09
2022-12-31T18:18:35.875Z,100421.06
2022-12-31T18:21:27.477Z,100437.50
2022-12-31T18:26:25.204Z,100445.66
2022-12-31T18:28:52.492Z,100457.19
2022-12-31T18:31:26.899Z,100448.63
2022-12-31T18:33:56.432Z,100440.41
2022-12-31T18:36:25.504Z,100425.25
2022-12-31T18:38:53.413Z,100445.53
2022-12-31T18:41:29.579Z,100456.41
2022-12-31T18:43:56.669Z,100461.72
2022-12-31T18:46:24.969Z,100457.28
2022-12-31T18:48:51.970Z,100473.34
2022-12-31T18:51:31.292Z,100479.44
2022-12-31T18:54:00.405Z,100474.47
2022-12-31T18:56:28.303Z,100472.97
2022-12-31T18:58:55.723Z,100475.41
2022-12-31T19:01:36.216Z,100493.00
2022-12-31T19:04:13.425Z,100478.88
2022-12-31T19:06:40.898Z,100485.00
2022-12-31T19:09:23.674Z,100482.78
2022-12-31T19:11:54.784Z,100493.50
2022-12-31T19:14:24.391Z,100490.72
2022-12-31T19:16:54.281Z,100504.84
2022-12-31T19:19:21.865Z,100500.44
2022-12-31T19:21:48.859Z,100496.16
2022-12-31T19:24:20.438Z,100511.88
2022-12-31T19:26:48.215Z,100506.59
2022-12-31T19:29:19.852Z,100517.09
2022-12-31T19:31:47.201Z,100507.13
2022-12-31T19:34:14.463Z,100514.28
2022-12-31T19:36:44.258Z,100500.81
2022-12-31T19:39:17.164Z,100504.72
2022-12-31T19:41:51.474Z,100519.03
2022-12-31T19:44:23.360Z,100514.03
2022-12-31T19:46:50.377Z,100529.59
2022-12-31T19:49:17.387Z,100522.13
2022-12-31T19:51:44.358Z,100518.66
2022-12-31T19:54:13.595Z,100531.44
2022-12-31T19:56:41.100Z,100508.38
2022-12-31T19:59:10.298Z,100518.53
2022-12-31T20:01:37.916Z,100524.97
2022-12-31T20:04:05.134Z,100512.03
2022-12-31T20:06:32.238Z,100516.94
2022-12-31T20:08:59.287Z,100521.34
2022-12-31T20:11:26.536Z,100520.47
2022-12-31T20:13:54.049Z,100518.78
2022-12-31T20:16:24.628Z,100528.50
2022-12-31T20:18:51.703Z,100536.00
2022-12-31T20:21:25.771Z,100520.16
2022-12-31T20:23:55.023Z,100536.47
2022-12-31T20:26:23.992Z,100537.31
2022-12-31T20:28:51.223Z,100535.16
2022-12-31T20:31:22.362Z,100525.16
2022-12-31T20:33:49.550Z,100541.63
2022-12-31T20:36:17.870Z,100537.69
2022-12-31T20:38:45.973Z,100543.97
2022-12-31T20:41:17.029Z,100538.41
2022-12-31T20:43:44.890Z,100535.19
2022-12-31T20:46:15.597Z,100544.88
2022-12-31T20:48:44.423Z,100533.66
2022-12-31T20:51:13.126Z,100537.44
2022-12-31T20:53:40.404Z,100540.53
2022-12-31T20:56:09.640Z,100544.53
2022-12-31T20:58:37.208Z,100551.63
2022-12-31T21:01:07.546Z,100538.25
2022-12-31T21:06:28.740Z,100545.44
2022-12-31T21:09:01.312Z,100543.28
2022-12-31T21:11:46.969Z,100555.63
2022-12-31T21:14:14.071Z,100559.78
2022-12-31T21:16:41.070Z,100553.19
2022-12-31T21:19:09.819Z,100567.81
2022-12-31T21:21:37.413Z,100558.50
2022-12-31T21:24:08.469Z,100556.69
2022-12-31T21:26:35.552Z,100551.72
2022-12-31T21:29:02.607Z,100547.94
2022-12-31T21:31:29.625Z,100546.00
2022-12-31T21:33:59.388Z,100550.88
2022-12-31T21:36:26.352Z,100550.44
2022-12-31T21:38:53.340Z,100554.25
2022-12-31T21:41:39.048Z,100557.19
2022-12-31T21:44:06.125Z,100565.28
2022-12-31T21:46:33.114Z,100560.50
2022-12-31T21:49:01.028Z,100565.03
2022-12-31T21:51:29.104Z,100568.00
2022-12-31T21:53:56.845Z,100572.94
2022-12-31T21:56:23.973Z,100565.97
2022-12-31T21:59:15.394Z,100570.84
2022-12-31T22:02:01.247Z,100586.66
2022-12-31T22:05:00.837Z,100585.88
2022-12-31T22:07:15.631Z,100582.09
2022-12-31T22:09:42.598Z,100589.34
2022-12-31T22:12:09.568Z,100586.44
2022-12-31T22:14:36.516Z,100581.06
2022-12-31T22:17:03.516Z,100598.28
2022-12-31T22:19:30.461Z,100604.63
2022-12-31T22:21:57.447Z,100606.88
2022-12-31T22:24:24.408Z,100623.97
2022-12-31T22:26:52.184Z,100615.34
2022-12-31T22:29:19.823Z,100623.78
2022-12-31T22:31:46.972Z,100625.56
2022-12-31T22:34:13.927Z,100613.66
2022-12-31T22:36:40.921Z,100624.13
2022-12-31T22:39:43.848Z,100636.38
2022-12-31T22:42:02.150Z,100646.88
2022-12-31T22:44:29.296Z,100645.94
2022-12-31T22:46:56.360Z,100641.72
2022-12-31T22:49:23.442Z,100637.69
2022-12-31T22:51:57.757Z,100639.34
2022-12-31T22:54:27.778Z,100631.00
2022-12-31T22:56:55.102Z,100623.00
2022-12-31T22:59:23.872Z,100632.56
2022-12-31T23:01:50.842Z,100621.09
2022-12-31T23:04:17.896Z,100645.56
2022-12-31T23:06:45.037Z,100636.34
2022-12-31T23:09:34.133Z,100631.94
2022-12-31T23:12:01.456Z,100638.09
2022-12-31T23:14:46.899Z,100638.91
2022-12-31T23:17:38.632Z,100631.03
2022-12-31T23:20:30.359Z,100634.63
2022-12-31T23:23:07.674Z,100616.41
2022-12-31T23:25:47.194Z,100614.53
2022-12-31T23:28:18.562Z,100624.16
2022-12-31T23:30:48.860Z,100620.59
2022-12-31T23:33:20.204Z,100624.09
2022-12-31T23:35:47.454Z,100625.41
2022-12-31T23:38:20.709Z,100628.19
2022-12-31T23:40:50.858Z,100635.66
2022-12-31T23:43:22.618Z,100634.91
2022-12-31T23:45:53.257Z,100641.13
2022-12-31T23:48:20.370Z,100651.97
2022-12-31T23:50:53.329Z,100645.41
2022-12-31T23:53:24.625Z,100651.09
2022-12-31T23:55:52.843Z,100646.75
2022-12-31T23:58:21.078Z,100662.19
